sensor_id;sensor_type;location;lat;lon;timestamp;P1;durP1;ratioP1;P2;durP2;ratioP2
46006;SDS011;31738;50.188;8.524;2023-06-10T00:00:10;9.90;;;8.60;;
46006;SDS011;31738;50.188;8.524;2023-06-10T00:02:38;11.15;;;9.27;;
46006;SDS011;31738;50.188;8.524;2023-06-10T00:05:04;13.05;;;8.65;;
46006;SDS011;31738;50.188;8.524;2023-06-10T00:07:30;10.35;;;8.60;;
46006;SDS011;31738;50.188;8.524;2023-06-10T00:09:55;11.70;;;8.60;;
46006;SDS011;31738;50.188;8.524;2023-06-10T00:12:21;14.60;;;9.55;;
46006;SDS011;31738;50.188;8.524;2023-06-10T00:14:46;11.98;;;9.00;;
46006;SDS011;31738;50.188;8.524;2023-06-10T00:17:13;12.95;;;8.60;;
46006;SDS011;31738;50.188;8.524;2023-06-10T00:19:40;12.05;;;9.05;;
46006;SDS011;31738;50.188;8.524;2023-06-10T00:22:06;13.23;;;8.05;;
46006;SDS011;31738;50.188;8.524;2023-06-10T00:24:31;14.05;;;8.43;;
46006;SDS011;31738;50.188;8.524;2023-06-10T00:26:57;10.52;;;8.15;;
46006;SDS011;31738;50.188;8.524;2023-06-10T00:29:22;13.02;;;7.90;;
46006;SDS011;31738;50.188;8.524;2023-06-10T00:31:47;10.70;;;7.93;;
46006;SDS011;31738;50.188;8.524;2023-06-10T00:34:13;11.00;;;8.25;;
46006;SDS011;31738;50.188;8.524;2023-06-10T00:36:38;11.18;;;8.15;;
46006;SDS011;31738;50.188;8.524;2023-06-10T00:39:04;11.90;;;8.00;;
46006;SDS011;31738;50.188;8.524;2023-06-10T00:41:29;9.93;;;7.82;;
46006;SDS011;31738;50.188;8.524;2023-06-10T00:43:55;11.05;;;8.13;;
46006;SDS011;31738;50.188;8.524;2023-06-10T00:46:21;8.82;;;7.80;;
46006;SDS011;31738;50.188;8.524;2023-06-10T00:48:48;9.52;;;7.75;;
46006;SDS011;31738;50.188;8.524;2023-06-10T00:51:15;14.77;;;7.60;;
46006;SDS011;31738;50.188;8.524;2023-06-10T00:53:41;12.45;;;7.60;;
46006;SDS011;31738;50.188;8.524;2023-06-10T00:56:07;10.95;;;7.60;;
46006;SDS011;31738;50.188;8.524;2023-06-10T00:58:34;9.98;;;8.18;;
46006;SDS011;31738;50.188;8.524;2023-06-10T01:01:01;9.98;;;7.57;;
46006;SDS011;31738;50.188;8.524;2023-06-10T01:03:27;11.05;;;7.72;;
46006;SDS011;31738;50.188;8.524;2023-06-10T01:05:57;9.10;;;7.38;;
46006;SDS011;31738;50.188;8.524;2023-06-10T01:08:35;8.90;;;7.38;;
46006;SDS011;31738;50.188;8.524;2023-06-10T01:11:06;9.57;;;7.53;;
46006;SDS011;31738;50.188;8.524;2023-06-10T01:13:34;9.48;;;7.75;;
46006;SDS011;31738;50.188;8.524;2023-06-10T01:16:03;9.93;;;7.50;;
46006;SDS011;31738;50.188;8.524;2023-06-10T01:18:30;10.35;;;7.38;;
46006;SDS011;31738;50.188;8.524;2023-06-10T01:20:57;10.45;;;7.50;;
46006;SDS011;31738;50.188;8.524;2023-06-10T01:23:22;9.25;;;7.13;;
46006;SDS011;31738;50.188;8.524;2023-06-10T01:26:02;11.23;;;7.43;;
46006;SDS011;31738;50.188;8.524;2023-06-10T01:34:09;9.20;;;6.88;;
46006;SDS011;31738;50.188;8.524;2023-06-10T01:36:38;10.63;;;7.32;;
46006;SDS011;31738;50.188;8.524;2023-06-10T01:39:07;12.35;;;7.00;;
46006;SDS011;31738;50.188;8.524;2023-06-10T01:41:35;9.68;;;6.88;;
46006;SDS011;31738;50.188;8.524;2023-06-10T01:44:01;8.63;;;6.80;;
46006;SDS011;31738;50.188;8.524;2023-06-10T01:46:27;10.65;;;6.55;;
46006;SDS011;31738;50.188;8.524;2023-06-10T01:48:53;10.27;;;6.45;;
46006;SDS011;31738;50.188;8.524;2023-06-10T01:51:18;8.13;;;6.55;;
46006;SDS011;31738;50.188;8.524;2023-06-10T01:53:44;9.70;;;7.20;;
46006;SDS011;31738;50.188;8.524;2023-06-10T01:56:09;10.07;;;7.18;;
46006;SDS011;31738;50.188;8.524;2023-06-10T01:58:35;11.52;;;7.55;;
46006;SDS011;31738;50.188;8.524;2023-06-10T02:01:00;9.35;;;7.05;;
46006;SDS011;31738;50.188;8.524;2023-06-10T02:03:26;9.55;;;7.00;;
46006;SDS011;31738;50.188;8.524;2023-06-10T02:05:51;11.52;;;6.60;;
46006;SDS011;31738;50.188;8.524;2023-06-10T02:08:17;8.23;;;6.60;;
46006;SDS011;31738;50.188;8.524;2023-06-10T02:10:42;10.38;;;6.90;;
46006;SDS011;31738;50.188;8.524;2023-06-10T02:13:08;7.70;;;6.53;;
46006;SDS011;31738;50.188;8.524;2023-06-10T02:15:36;10.23;;;6.72;;
46006;SDS011;31738;50.188;8.524;2023-06-10T02:18:01;9.02;;;7.00;;
46006;SDS011;31738;50.188;8.524;2023-06-10T02:20:27;10.13;;;6.72;;
46006;SDS011;31738;50.188;8.524;2023-06-10T02:22:53;8.23;;;6.43;;
46006;SDS011;31738;50.188;8.524;2023-06-10T02:25:18;9.35;;;6.60;;
46006;SDS011;31738;50.188;8.524;2023-06-10T02:27:43;9.13;;;6.68;;
46006;SDS011;31738;50.188;8.524;2023-06-10T02:30:09;7.85;;;6.63;;
46006;SDS011;31738;50.188;8.524;2023-06-10T02:32:36;8.43;;;6.25;;
46006;SDS011;31738;50.188;8.524;2023-06-10T02:35:02;9.88;;;6.68;;
46006;SDS011;31738;50.188;8.524;2023-06-10T02:37:29;8.10;;;6.47;;
46006;SDS011;31738;50.188;8.524;2023-06-10T02:39:55;10.00;;;6.30;;
46006;SDS011;31738;50.188;8.524;2023-06-10T02:42:21;8.65;;;6.72;;
46006;SDS011;31738;50.188;8.524;2023-06-10T02:44:47;9.23;;;6.93;;
46006;SDS011;31738;50.188;8.524;2023-06-10T02:47:20;11.13;;;6.47;;
46006;SDS011;31738;50.188;8.524;2023-06-10T02:49:45;9.43;;;6.47;;
46006;SDS011;31738;50.188;8.524;2023-06-10T02:52:11;9.05;;;6.75;;
46006;SDS011;31738;50.188;8.524;2023-06-10T02:54:37;9.65;;;6.45;;
46006;SDS011;31738;50.188;8.524;2023-06-10T02:57:05;9.93;;;6.70;;
46006;SDS011;31738;50.188;8.524;2023-06-10T02:59:31;9.68;;;6.40;;
46006;SDS011;31738;50.188;8.524;2023-06-10T03:01:58;7.72;;;6.38;;
46006;SDS011;31738;50.188;8.524;2023-06-10T03:04:26;8.13;;;6.47;;
46006;SDS011;31738;50.188;8.524;2023-06-10T03:07:00;9.48;;;6.90;;
46006;SDS011;31738;50.188;8.524;2023-06-10T03:09:31;9.80;;;6.38;;
46006;SDS011;31738;50.188;8.524;2023-06-10T03:11:58;8.27;;;6.60;;
46006;SDS011;31738;50.188;8.524;2023-06-10T03:14:25;8.48;;;6.60;;
46006;SDS011;31738;50.188;8.524;2023-06-10T03:16:51;9.20;;;7.53;;
46006;SDS011;31738;50.188;8.524;2023-06-10T03:19:18;11.27;;;7.03;;
46006;SDS011;31738;50.188;8.524;2023-06-10T03:21:49;9.10;;;6.75;;
46006;SDS011;31738;50.188;8.524;2023-06-10T03:24:19;9.38;;;6.40;;
46006;SDS011;31738;50.188;8.524;2023-06-10T03:26:45;8.55;;;6.70;;
46006;SDS011;31738;50.188;8.524;2023-06-10T03:29:11;9.77;;;6.70;;
46006;SDS011;31738;50.188;8.524;2023-06-10T03:31:37;8.23;;;6.43;;
46006;SDS011;31738;50.188;8.524;2023-06-10T03:34:05;10.80;;;7.10;;
46006;SDS011;31738;50.188;8.524;2023-06-10T03:36:31;9.60;;;6.15;;
46006;SDS011;31738;50.188;8.524;2023-06-10T03:38:57;8.50;;;6.78;;
46006;SDS011;31738;50.188;8.524;2023-06-10T03:41:23;8.90;;;6.70;;
46006;SDS011;31738;50.188;8.524;2023-06-10T03:43:50;10.73;;;7.18;;
46006;SDS011;31738;50.188;8.524;2023-06-10T03:46:16;9.25;;;6.30;;
46006;SDS011;31738;50.188;8.524;2023-06-10T03:48:42;11.25;;;7.15;;
46006;SDS011;31738;50.188;8.524;2023-06-10T03:51:08;8.02;;;6.30;;
46006;SDS011;31738;50.188;8.524;2023-06-10T03:53:34;11.93;;;6.72;;
46006;SDS011;31738;50.188;8.524;2023-06-10T03:55:59;7.95;;;6.55;;
46006;SDS011;31738;50.188;8.524;2023-06-10T03:58:26;7.90;;;6.40;;
46006;SDS011;31738;50.188;8.524;2023-06-10T04:00:52;11.80;;;7.00;;
46006;SDS011;31738;50.188;8.524;2023-06-10T04:03:23;10.13;;;6.47;;
46006;SDS011;31738;50.188;8.524;2023-06-10T04:05:50;12.20;;;7.43;;
46006;SDS011;31738;50.188;8.524;2023-06-10T04:08:17;10.02;;;7.10;;
46006;SDS011;31738;50.188;8.524;2023-06-10T04:10:42;9.98;;;7.05;;
46006;SDS011;31738;50.188;8.524;2023-06-10T04:13:08;8.55;;;7.35;;
46006;SDS011;31738;50.188;8.524;2023-06-10T04:15:39;10.82;;;6.90;;
46006;SDS011;31738;50.188;8.524;2023-06-10T04:18:09;8.65;;;7.28;;
46006;SDS011;31738;50.188;8.524;2023-06-10T04:20:35;12.68;;;7.90;;
46006;SDS011;31738;50.188;8.524;2023-06-10T04:23:00;10.27;;;7.63;;
46006;SDS011;31738;50.188;8.524;2023-06-10T04:25:27;13.65;;;7.03;;
46006;SDS011;31738;50.188;8.524;2023-06-10T04:27:54;12.93;;;7.78;;
46006;SDS011;31738;50.188;8.524;2023-06-10T04:30:20;9.48;;;7.10;;
46006;SDS011;31738;50.188;8.524;2023-06-10T04:32:47;10.85;;;7.82;;
46006;SDS011;31738;50.188;8.524;2023-06-10T04:35:15;10.30;;;6.85;;
46006;SDS011;31738;50.188;8.524;2023-06-10T04:37:41;11.88;;;7.32;;
46006;SDS011;31738;50.188;8.524;2023-06-10T04:40:08;12.88;;;7.10;;
46006;SDS011;31738;50.188;8.524;2023-06-10T04:42:34;9.93;;;7.47;;
46006;SDS011;31738;50.188;8.524;2023-06-10T04:45:00;10.30;;;7.47;;
46006;SDS011;31738;50.188;8.524;2023-06-10T04:47:26;8.57;;;6.75;;
46006;SDS011;31738;50.188;8.524;2023-06-10T04:49:52;9.40;;;7.32;;
46006;SDS011;31738;50.188;8.524;2023-06-10T04:52:17;10.82;;;7.15;;
46006;SDS011;31738;50.188;8.524;2023-06-10T04:54:43;11.73;;;7.90;;
46006;SDS011;31738;50.188;8.524;2023-06-10T04:57:09;11.32;;;6.95;;
46006;SDS011;31738;50.188;8.524;2023-06-10T04:59:36;10.57;;;7.30;;
46006;SDS011;31738;50.188;8.524;2023-06-10T05:02:03;9.55;;;7.15;;
46006;SDS011;31738;50.188;8.524;2023-06-10T05:04:29;10.82;;;7.32;;
46006;SDS011;31738;50.188;8.524;2023-06-10T05:06:55;9.77;;;7.32;;
46006;SDS011;31738;50.188;8.524;2023-06-10T05:09:20;11.52;;;7.53;;
46006;SDS011;31738;50.188;8.524;2023-06-10T05:11:46;13.45;;;7.47;;
46006;SDS011;31738;50.188;8.524;2023-06-10T05:14:29;12.63;;;8.23;;
46006;SDS011;31738;50.188;8.524;2023-06-10T05:16:54;12.93;;;7.55;;
46006;SDS011;31738;50.188;8.524;2023-06-10T05:19:20;9.05;;;7.47;;
46006;SDS011;31738;50.188;8.524;2023-06-10T05:21:46;8.25;;;6.80;;
46006;SDS011;31738;50.188;8.524;2023-06-10T05:24:11;10.77;;;7.85;;
46006;SDS011;31738;50.188;8.524;2023-06-10T05:26:37;8.13;;;6.97;;
46006;SDS011;31738;50.188;8.524;2023-06-10T05:29:03;9.18;;;6.60;;
46006;SDS011;31738;50.188;8.524;2023-06-10T05:31:29;10.75;;;7.63;;
46006;SDS011;31738;50.188;8.524;2023-06-10T05:33:55;11.63;;;7.85;;
46006;SDS011;31738;50.188;8.524;2023-06-10T05:36:20;10.57;;;7.65;;
46006;SDS011;31738;50.188;8.524;2023-06-10T05:38:46;8.40;;;7.07;;
46006;SDS011;31738;50.188;8.524;2023-06-10T05:41:11;11.00;;;7.70;;
46006;SDS011;31738;50.188;8.524;2023-06-10T05:43:37;10.30;;;7.82;;
46006;SDS011;31738;50.188;8.524;2023-06-10T05:46:02;11.35;;;7.70;;
46006;SDS011;31738;50.188;8.524;2023-06-10T05:48:28;12.05;;;7.47;;
46006;SDS011;31738;50.188;8.524;2023-06-10T05:50:53;8.40;;;7.00;;
46006;SDS011;31738;50.188;8.524;2023-06-10T05:53:19;12.20;;;7.53;;
46006;SDS011;31738;50.188;8.524;2023-06-10T05:55:44;11.32;;;7.53;;
46006;SDS011;31738;50.188;8.524;2023-06-10T05:58:11;9.73;;;7.68;;
46006;SDS011;31738;50.188;8.524;2023-06-10T06:00:38;9.50;;;7.55;;
46006;SDS011;31738;50.188;8.524;2023-06-10T06:03:03;8.93;;;7.20;;
46006;SDS011;31738;50.188;8.524;2023-06-10T06:05:31;12.15;;;7.40;;
46006;SDS011;31738;50.188;8.524;2023-06-10T06:08:00;8.40;;;7.55;;
46006;SDS011;31738;50.188;8.524;2023-06-10T06:10:27;11.45;;;7.22;;
46006;SDS011;31738;50.188;8.524;2023-06-10T06:12:52;10.40;;;7.55;;
46006;SDS011;31738;50.188;8.524;2023-06-10T06:15:17;8.55;;;7.47;;
46006;SDS011;31738;50.188;8.524;2023-06-10T06:17:43;10.75;;;7.70;;
46006;SDS011;31738;50.188;8.524;2023-06-10T06:20:08;11.25;;;8.15;;
46006;SDS011;31738;50.188;8.524;2023-06-10T06:22:34;11.95;;;7.53;;
46006;SDS011;31738;50.188;8.524;2023-06-10T06:25:00;10.82;;;8.13;;
46006;SDS011;31738;50.188;8.524;2023-06-10T06:27:25;8.32;;;7.35;;
46006;SDS011;31738;50.188;8.524;2023-06-10T06:29:50;9.18;;;7.28;;
46006;SDS011;31738;50.188;8.524;2023-06-10T06:32:16;13.35;;;8.07;;
46006;SDS011;31738;50.188;8.524;2023-06-10T06:34:41;11.63;;;7.55;;
46006;SDS011;31738;50.188;8.524;2023-06-10T06:37:07;11.50;;;7.40;;
46006;SDS011;31738;50.188;8.524;2023-06-10T06:39:34;8.77;;;6.85;;
46006;SDS011;31738;50.188;8.524;2023-06-10T06:42:00;9.55;;;6.95;;
46006;SDS011;31738;50.188;8.524;2023-06-10T06:44:44;13.23;;;8.50;;
46006;SDS011;31738;50.188;8.524;2023-06-10T06:47:10;13.13;;;8.00;;
46006;SDS011;31738;50.188;8.524;2023-06-10T06:49:36;8.38;;;7.47;;
46006;SDS011;31738;50.188;8.524;2023-06-10T06:52:02;10.77;;;7.40;;
46006;SDS011;31738;50.188;8.524;2023-06-10T06:54:28;11.43;;;7.60;;
46006;SDS011;31738;50.188;8.524;2023-06-10T06:56:57;10.30;;;8.25;;
46006;SDS011;31738;50.188;8.524;2023-06-10T06:59:22;9.63;;;8.20;;
46006;SDS011;31738;50.188;8.524;2023-06-10T07:01:48;11.20;;;7.88;;
46006;SDS011;31738;50.188;8.524;2023-06-10T07:04:14;10.00;;;7.68;;
46006;SDS011;31738;50.188;8.524;2023-06-10T07:06:41;10.80;;;7.85;;
46006;SDS011;31738;50.188;8.524;2023-06-10T07:09:07;10.48;;;8.52;;
46006;SDS011;31738;50.188;8.524;2023-06-10T07:15:10;11.02;;;7.78;;
46006;SDS011;31738;50.188;8.524;2023-06-10T07:17:50;8.98;;;7.78;;
46006;SDS011;31738;50.188;8.524;2023-06-10T07:20:19;8.00;;;7.25;;
46006;SDS011;31738;50.188;8.524;2023-06-10T07:22:44;11.77;;;7.75;;
46006;SDS011;31738;50.188;8.524;2023-06-10T07:25:10;8.68;;;7.10;;
46006;SDS011;31738;50.188;8.524;2023-06-10T07:27:35;9.30;;;7.43;;
46006;SDS011;31738;50.188;8.524;2023-06-10T07:30:05;8.73;;;7.80;;
46006;SDS011;31738;50.188;8.524;2023-06-10T07:32:36;12.32;;;8.27;;
46006;SDS011;31738;50.188;8.524;2023-06-10T07:35:02;10.95;;;7.90;;
46006;SDS011;31738;50.188;8.524;2023-06-10T07:37:31;13.75;;;8.23;;
46006;SDS011;31738;50.188;8.524;2023-06-10T07:39:56;9.32;;;7.90;;
46006;SDS011;31738;50.188;8.524;2023-06-10T07:42:22;12.40;;;8.00;;
46006;SDS011;31738;50.188;8.524;2023-06-10T07:44:47;9.45;;;7.97;;
46006;SDS011;31738;50.188;8.524;2023-06-10T07:47:13;9.38;;;8.20;;
46006;SDS011;31738;50.188;8.524;2023-06-10T07:49:42;16.95;;;8.15;;
46006;SDS011;31738;50.188;8.524;2023-06-10T07:52:19;12.27;;;8.35;;
46006;SDS011;31738;50.188;8.524;2023-06-10T07:54:44;12.05;;;8.38;;
46006;SDS011;31738;50.188;8.524;2023-06-10T07:57:10;12.30;;;7.95;;
46006;SDS011;31738;50.188;8.524;2023-06-10T07:59:35;10.15;;;8.05;;
46006;SDS011;31738;50.188;8.524;2023-06-10T08:02:03;11.38;;;8.10;;
46006;SDS011;31738;50.188;8.524;2023-06-10T08:04:32;10.52;;;8.25;;
46006;SDS011;31738;50.188;8.524;2023-06-10T08:07:00;8.50;;;7.63;;
46006;SDS011;31738;50.188;8.524;2023-06-10T08:09:25;11.70;;;8.07;;
46006;SDS011;31738;50.188;8.524;2023-06-10T08:11:51;12.52;;;8.00;;
46006;SDS011;31738;50.188;8.524;2023-06-10T08:14:16;10.98;;;8.23;;
46006;SDS011;31738;50.188;8.524;2023-06-10T08:16:43;12.75;;;7.75;;
46006;SDS011;31738;50.188;8.524;2023-06-10T08:19:08;9.13;;;8.15;;
46006;SDS011;31738;50.188;8.524;2023-06-10T08:21:34;10.70;;;7.85;;
46006;SDS011;31738;50.188;8.524;2023-06-10T08:24:05;8.77;;;7.88;;
46006;SDS011;31738;50.188;8.524;2023-06-10T08:26:32;9.85;;;7.20;;
46006;SDS011;31738;50.188;8.524;2023-06-10T08:29:00;10.60;;;8.00;;
46006;SDS011;31738;50.188;8.524;2023-06-10T08:31:26;12.93;;;7.90;;
46006;SDS011;31738;50.188;8.524;2023-06-10T08:33:51;11.05;;;7.50;;
46006;SDS011;31738;50.188;8.524;2023-06-10T08:36:17;9.95;;;8.02;;
46006;SDS011;31738;50.188;8.524;2023-06-10T08:38:42;11.07;;;8.20;;
46006;SDS011;31738;50.188;8.524;2023-06-10T08:41:08;9.68;;;7.50;;
46006;SDS011;31738;50.188;8.524;2023-06-10T08:43:57;10.80;;;7.53;;
46006;SDS011;31738;50.188;8.524;2023-06-10T08:46:29;7.93;;;6.82;;
46006;SDS011;31738;50.188;8.524;2023-06-10T08:48:56;8.25;;;7.32;;
46006;SDS011;31738;50.188;8.524;2023-06-10T08:51:27;8.02;;;7.20;;
46006;SDS011;31738;50.188;8.524;2023-06-10T08:54:00;9.73;;;7.57;;
46006;SDS011;31738;50.188;8.524;2023-06-10T08:56:28;12.20;;;7.28;;
46006;SDS011;31738;50.188;8.524;2023-06-10T08:58:55;8.90;;;6.88;;
46006;SDS011;31738;50.188;8.524;2023-06-10T09:01:23;10.13;;;7.10;;
46006;SDS011;31738;50.188;8.524;2023-06-10T09:03:50;10.43;;;7.53;;
46006;SDS011;31738;50.188;8.524;2023-06-10T09:06:16;9.70;;;7.45;;
46006;SDS011;31738;50.188;8.524;2023-06-10T09:08:43;10.68;;;7.20;;
46006;SDS011;31738;50.188;8.524;2023-06-10T09:11:09;9.40;;;6.93;;
46006;SDS011;31738;50.188;8.524;2023-06-10T09:13:34;9.00;;;6.90;;
46006;SDS011;31738;50.188;8.524;2023-06-10T09:16:00;9.55;;;7.28;;
46006;SDS011;31738;50.188;8.524;2023-06-10T09:18:27;10.82;;;6.88;;
46006;SDS011;31738;50.188;8.524;2023-06-10T09:20:53;12.07;;;6.80;;
46006;SDS011;31738;50.188;8.524;2023-06-10T09:23:19;8.77;;;6.80;;
46006;SDS011;31738;50.188;8.524;2023-06-10T09:25:44;7.78;;;7.03;;
46006;SDS011;31738;50.188;8.524;2023-06-10T09:28:14;9.57;;;7.05;;
46006;SDS011;31738;50.188;8.524;2023-06-10T09:30:40;9.90;;;7.50;;
46006;SDS011;31738;50.188;8.524;2023-06-10T09:33:10;13.93;;;7.85;;
46006;SDS011;31738;50.188;8.524;2023-06-10T09:35:37;9.88;;;6.75;;
46006;SDS011;31738;50.188;8.524;2023-06-10T09:38:10;7.70;;;6.38;;
46006;SDS011;31738;50.188;8.524;2023-06-10T09:40:47;8.50;;;6.72;;
46006;SDS011;31738;50.188;8.524;2023-06-10T09:43:17;8.38;;;6.60;;
46006;SDS011;31738;50.188;8.524;2023-06-10T09:45:43;9.65;;;6.95;;
46006;SDS011;31738;50.188;8.524;2023-06-10T09:48:08;8.88;;;6.85;;
46006;SDS011;31738;50.188;8.524;2023-06-10T09:50:34;9.00;;;6.53;;
46006;SDS011;31738;50.188;8.524;2023-06-10T09:53:06;8.88;;;6.63;;
46006;SDS011;31738;50.188;8.524;2023-06-10T09:55:37;9.98;;;6.95;;
46006;SDS011;31738;50.188;8.524;2023-06-10T09:58:03;10.20;;;6.57;;
46006;SDS011;31738;50.188;8.524;2023-06-10T10:00:31;11.48;;;6.47;;
46006;SDS011;31738;50.188;8.524;2023-06-10T10:02:58;10.77;;;7.32;;
46006;SDS011;31738;50.188;8.524;2023-06-10T10:05:23;10.57;;;7.10;;
46006;SDS011;31738;50.188;8.524;2023-06-10T10:07:49;6.82;;;6.07;;
46006;SDS011;31738;50.188;8.524;2023-06-10T10:10:16;9.02;;;6.90;;
46006;SDS011;31738;50.188;8.524;2023-06-10T10:12:42;8.52;;;7.07;;
46006;SDS011;31738;50.188;8.524;2023-06-10T10:15:11;10.35;;;6.20;;
46006;SDS011;31738;50.188;8.524;2023-06-10T10:17:37;6.22;;;5.53;;
46006;SDS011;31738;50.188;8.524;2023-06-10T10:20:08;6.40;;;5.78;;
46006;SDS011;31738;50.188;8.524;2023-06-10T10:22:38;8.05;;;6.55;;
46006;SDS011;31738;50.188;8.524;2023-06-10T10:25:10;9.90;;;6.63;;
46006;SDS011;31738;50.188;8.524;2023-06-10T10:30:32;8.80;;;6.85;;
46006;SDS011;31738;50.188;8.524;2023-06-10T10:33:16;11.52;;;6.50;;
46006;SDS011;31738;50.188;8.524;2023-06-10T10:35:45;8.82;;;6.28;;
46006;SDS011;31738;50.188;8.524;2023-06-10T10:38:11;7.03;;;6.35;;
46006;SDS011;31738;50.188;8.524;2023-06-10T10:40:37;7.30;;;6.60;;
46006;SDS011;31738;50.188;8.524;2023-06-10T10:43:04;9.80;;;6.60;;
46006;SDS011;31738;50.188;8.524;2023-06-10T10:45:31;10.10;;;6.90;;
46006;SDS011;31738;50.188;8.524;2023-06-10T10:47:59;8.27;;;6.43;;
46006;SDS011;31738;50.188;8.524;2023-06-10T10:50:31;8.00;;;6.45;;
46006;SDS011;31738;50.188;8.524;2023-06-10T10:53:03;10.25;;;6.65;;
46006;SDS011;31738;50.188;8.524;2023-06-10T10:55:29;8.57;;;6.18;;
46006;SDS011;31738;50.188;8.524;2023-06-10T10:57:59;10.90;;;6.30;;
46006;SDS011;31738;50.188;8.524;2023-06-10T11:02:58;7.75;;;6.35;;
46006;SDS011;31738;50.188;8.524;2023-06-10T11:05:50;6.78;;;6.10;;
46006;SDS011;31738;50.188;8.524;2023-06-10T11:08:15;8.73;;;6.18;;
46006;SDS011;31738;50.188;8.524;2023-06-10T11:11:00;9.27;;;6.45;;
46006;SDS011;31738;50.188;8.524;2023-06-10T11:13:26;9.82;;;5.90;;
46006;SDS011;31738;50.188;8.524;2023-06-10T11:15:53;7.90;;;5.85;;
46006;SDS011;31738;50.188;8.524;2023-06-10T11:18:23;6.55;;;5.88;;
46006;SDS011;31738;50.188;8.524;2023-06-10T11:26:12;6.45;;;4.78;;
46006;SDS011;31738;50.188;8.524;2023-06-10T11:28:40;8.80;;;5.45;;
46006;SDS011;31738;50.188;8.524;2023-06-10T11:31:20;5.78;;;5.10;;
46006;SDS011;31738;50.188;8.524;2023-06-10T11:33:47;7.22;;;4.70;;
46006;SDS011;31738;50.188;8.524;2023-06-10T11:36:13;9.93;;;5.43;;
46006;SDS011;31738;50.188;8.524;2023-06-10T11:38:40;7.45;;;4.75;;
46006;SDS011;31738;50.188;8.524;2023-06-10T11:41:06;11.65;;;4.78;;
46006;SDS011;31738;50.188;8.524;2023-06-10T11:43:32;5.00;;;4.50;;
46006;SDS011;31738;50.188;8.524;2023-06-10T11:45:58;6.43;;;5.05;;
46006;SDS011;31738;50.188;8.524;2023-06-10T11:48:25;6.53;;;4.75;;
46006;SDS011;31738;50.188;8.524;2023-06-10T11:50:53;6.55;;;4.85;;
46006;SDS011;31738;50.188;8.524;2023-06-10T11:53:19;5.57;;;5.07;;
46006;SDS011;31738;50.188;8.524;2023-06-10T11:55:47;11.05;;;5.20;;
46006;SDS011;31738;50.188;8.524;2023-06-10T11:58:17;7.43;;;5.18;;
46006;SDS011;31738;50.188;8.524;2023-06-10T12:00:47;6.57;;;5.28;;
46006;SDS011;31738;50.188;8.524;2023-06-10T12:03:13;7.03;;;5.68;;
46006;SDS011;31738;50.188;8.524;2023-06-10T12:05:39;10.95;;;5.65;;
46006;SDS011;31738;50.188;8.524;2023-06-10T12:08:09;18.55;;;5.72;;
46006;SDS011;31738;50.188;8.524;2023-06-10T12:10:42;18.63;;;6.15;;
46006;SDS011;31738;50.188;8.524;2023-06-10T12:13:11;11.98;;;5.55;;
46006;SDS011;31738;50.188;8.524;2023-06-10T12:15:36;8.88;;;5.78;;
46006;SDS011;31738;50.188;8.524;2023-06-10T12:18:02;12.90;;;5.90;;
46006;SDS011;31738;50.188;8.524;2023-06-10T12:20:29;8.88;;;5.38;;
46006;SDS011;31738;50.188;8.524;2023-06-10T12:22:58;7.13;;;5.18;;
46006;SDS011;31738;50.188;8.524;2023-06-10T12:25:25;7.15;;;5.32;;
46006;SDS011;31738;50.188;8.524;2023-06-10T12:27:53;6.05;;;5.45;;
46006;SDS011;31738;50.188;8.524;2023-06-10T12:30:23;8.77;;;5.78;;
46006;SDS011;31738;50.188;8.524;2023-06-10T12:32:50;6.45;;;5.70;;
46006;SDS011;31738;50.188;8.524;2023-06-10T12:35:16;6.28;;;5.68;;
46006;SDS011;31738;50.188;8.524;2023-06-10T12:37:54;7.95;;;5.40;;
46006;SDS011;31738;50.188;8.524;2023-06-10T12:40:26;10.43;;;5.82;;
46006;SDS011;31738;50.188;8.524;2023-06-10T12:42:56;8.85;;;6.18;;
46006;SDS011;31738;50.188;8.524;2023-06-10T12:45:26;6.20;;;5.45;;
46006;SDS011;31738;50.188;8.524;2023-06-10T12:48:03;8.13;;;6.72;;
46006;SDS011;31738;50.188;8.524;2023-06-10T12:50:31;6.72;;;6.03;;
46006;SDS011;31738;50.188;8.524;2023-06-10T12:52:56;12.70;;;5.88;;
46006;SDS011;31738;50.188;8.524;2023-06-10T12:55:22;7.22;;;6.00;;
46006;SDS011;31738;50.188;8.524;2023-06-10T12:57:48;10.43;;;6.40;;
46006;SDS011;31738;50.188;8.524;2023-06-10T13:00:14;8.95;;;5.97;;
46006;SDS011;31738;50.188;8.524;2023-06-10T13:02:41;8.02;;;5.93;;
46006;SDS011;31738;50.188;8.524;2023-06-10T13:05:06;7.93;;;6.15;;
46006;SDS011;31738;50.188;8.524;2023-06-10T13:07:32;9.68;;;5.95;;
46006;SDS011;31738;50.188;8.524;2023-06-10T13:09:58;6.80;;;6.10;;
46006;SDS011;31738;50.188;8.524;2023-06-10T13:12:25;8.57;;;5.95;;
46006;SDS011;31738;50.188;8.524;2023-06-10T13:14:51;6.93;;;5.55;;
46006;SDS011;31738;50.188;8.524;2023-06-10T13:17:18;6.63;;;5.80;;
46006;SDS011;31738;50.188;8.524;2023-06-10T13:19:45;7.75;;;5.35;;
46006;SDS011;31738;50.188;8.524;2023-06-10T13:22:10;9.48;;;5.82;;
46006;SDS011;31738;50.188;8.524;2023-06-10T13:24:38;6.60;;;6.00;;
46006;SDS011;31738;50.188;8.524;2023-06-10T13:27:04;7.07;;;6.13;;
46006;SDS011;31738;50.188;8.524;2023-06-10T13:29:31;9.35;;;6.53;;
46006;SDS011;31738;50.188;8.524;2023-06-10T13:31:57;10.35;;;6.10;;
46006;SDS011;31738;50.188;8.524;2023-06-10T13:34:23;9.27;;;5.95;;
46006;SDS011;31738;50.188;8.524;2023-06-10T13:36:48;11.02;;;6.32;;
46006;SDS011;31738;50.188;8.524;2023-06-10T13:39:14;7.60;;;5.72;;
46006;SDS011;31738;50.188;8.524;2023-06-10T13:41:41;7.80;;;6.10;;
46006;SDS011;31738;50.188;8.524;2023-06-10T13:44:07;11.75;;;6.28;;
46006;SDS011;31738;50.188;8.524;2023-06-10T13:46:32;9.63;;;6.07;;
46006;SDS011;31738;50.188;8.524;2023-06-10T13:48:58;8.10;;;6.20;;
46006;SDS011;31738;50.188;8.524;2023-06-10T13:51:23;9.90;;;6.75;;
46006;SDS011;31738;50.188;8.524;2023-06-10T13:53:49;7.95;;;5.68;;
46006;SDS011;31738;50.188;8.524;2023-06-10T13:56:16;6.43;;;5.65;;
46006;SDS011;31738;50.188;8.524;2023-06-10T13:58:42;9.07;;;6.10;;
46006;SDS011;31738;50.188;8.524;2023-06-10T14:01:10;6.97;;;6.25;;
46006;SDS011;31738;50.188;8.524;2023-06-10T14:03:36;8.25;;;6.13;;
46006;SDS011;31738;50.188;8.524;2023-06-10T14:06:02;7.15;;;6.35;;
46006;SDS011;31738;50.188;8.524;2023-06-10T14:08:28;8.48;;;5.95;;
46006;SDS011;31738;50.188;8.524;2023-06-10T14:10:56;15.82;;;6.47;;
46006;SDS011;31738;50.188;8.524;2023-06-10T14:13:21;7.13;;;5.68;;
46006;SDS011;31738;50.188;8.524;2023-06-10T14:15:47;6.25;;;5.63;;
46006;SDS011;31738;50.188;8.524;2023-06-10T14:18:13;8.43;;;5.82;;
46006;SDS011;31738;50.188;8.524;2023-06-10T14:20:38;7.18;;;5.40;;
46006;SDS011;31738;50.188;8.524;2023-06-10T14:23:03;8.80;;;6.07;;
46006;SDS011;31738;50.188;8.524;2023-06-10T14:25:29;8.05;;;5.88;;
46006;SDS011;31738;50.188;8.524;2023-06-10T14:27:55;7.35;;;5.15;;
46006;SDS011;31738;50.188;8.524;2023-06-10T14:30:20;6.70;;;5.57;;
46006;SDS011;31738;50.188;8.524;2023-06-10T14:32:48;7.28;;;5.10;;
46006;SDS011;31738;50.188;8.524;2023-06-10T14:35:14;7.07;;;5.03;;
46006;SDS011;31738;50.188;8.524;2023-06-10T14:37:39;8.32;;;5.70;;
46006;SDS011;31738;50.188;8.524;2023-06-10T14:40:05;8.48;;;5.20;;
46006;SDS011;31738;50.188;8.524;2023-06-10T14:42:31;7.65;;;5.53;;
46006;SDS011;31738;50.188;8.524;2023-06-10T14:44:57;7.07;;;5.40;;
46006;SDS011;31738;50.188;8.524;2023-06-10T14:47:26;7.00;;;5.10;;
46006;SDS011;31738;50.188;8.524;2023-06-10T14:49:51;6.05;;;5.43;;
46006;SDS011;31738;50.188;8.524;2023-06-10T14:52:17;5.57;;;4.88;;
46006;SDS011;31738;50.188;8.524;2023-06-10T14:54:42;6.40;;;4.75;;
46006;SDS011;31738;50.188;8.524;2023-06-10T14:57:08;5.70;;;5.10;;
46006;SDS011;31738;50.188;8.524;2023-06-10T14:59:33;7.90;;;5.25;;
46006;SDS011;31738;50.188;8.524;2023-06-10T15:01:59;7.85;;;5.00;;